sensor_id;sensor_type;location;lat;lon;timestamp;pressure;altitude;pressure_sealevel;temperature
34310;BMP280;61664;48.112;11.662;2023-09-12T00:02:15;95297.22;;;23.46
34310;BMP280;61664;48.112;11.662;2023-09-12T00:04:42;95299.06;;;23.43
34310;BMP280;61664;48.112;11.662;2023-09-12T00:07:09;95309.97;;;23.43
34310;BMP280;61664;48.112;11.662;2023-09-12T00:09:36;95305.63;;;23.40
34310;BMP280;61664;48.112;11.662;2023-09-12T00:12:03;95302.34;;;23.42
34310;BMP280;61664;48.112;11.662;2023-09-12T00:14:30;95293.06;;;23.37
34310;BMP280;61664;48.112;11.662;2023-09-12T00:16:57;95286.72;;;23.35
34310;BMP280;61664;48.112;11.662;2023-09-12T00:19:24;95291.81;;;23.38
34310;BMP280;61664;48.112;11.662;2023-09-12T00:21:51;95287.47;;;23.35
34310;BMP280;61664;48.112;11.662;2023-09-12T00:24:20;95286.56;;;23.33
34310;BMP280;61664;48.112;11.662;2023-09-12T00:26:47;95279.09;;;23.33
34310;BMP280;61664;48.112;11.662;2023-09-12T00:29:14;95282.16;;;23.37
34310;BMP280;61664;48.112;11.662;2023-09-12T00:31:40;95272.75;;;23.31
34310;BMP280;61664;48.112;11.662;2023-09-12T00:34:07;95279.13;;;23.26
34310;BMP280;61664;48.112;11.662;2023-09-12T00:36:34;95285.66;;;23.23
34310;BMP280;61664;48.112;11.662;2023-09-12T00:39:03;95283.13;;;23.17
34310;BMP280;61664;48.112;11.662;2023-09-12T00:41:34;95273.88;;;23.13
34310;BMP280;61664;48.112;11.662;2023-09-12T00:44:00;95280.94;;;23.16
34310;BMP280;61664;48.112;11.662;2023-09-12T00:46:28;95275.50;;;23.16
34310;BMP280;61664;48.112;11.662;2023-09-12T00:48:58;95273.50;;;23.16
34310;BMP280;61664;48.112;11.662;2023-09-12T00:51:26;95266.78;;;23.17
34310;BMP280;61664;48.112;11.662;2023-09-12T00:53:54;95266.06;;;23.17
34310;BMP280;61664;48.112;11.662;2023-09-12T00:56:22;95261.72;;;23.14
34310;BMP280;61664;48.112;11.662;2023-09-12T00:58:49;95263.53;;;23.11
34310;BMP280;61664;48.112;11.662;2023-09-12T01:01:20;95257.41;;;23.03
34310;BMP280;61664;48.112;11.662;2023-09-12T01:03:47;95266.09;;;22.94
34310;BMP280;61664;48.112;11.662;2023-09-12T01:06:17;95263.94;;;22.92
34310;BMP280;61664;48.112;11.662;2023-09-12T01:08:46;95267.38;;;22.78
34310;BMP280;61664;48.112;11.662;2023-09-12T01:11:14;95271.41;;;22.77
34310;BMP280;61664;48.112;11.662;2023-09-12T01:13:41;95268.88;;;22.71
34310;BMP280;61664;48.112;11.662;2023-09-12T01:16:08;95262.50;;;22.69
34310;BMP280;61664;48.112;11.662;2023-09-12T01:18:35;95259.97;;;22.63
34310;BMP280;61664;48.112;11.662;2023-09-12T01:28:57;95268.13;;;22.48
34310;BMP280;61664;48.112;11.662;2023-09-12T01:31:25;95263.25;;;22.46
34310;BMP280;61664;48.112;11.662;2023-09-12T01:33:56;95260.31;;;22.44
34310;BMP280;61664;48.112;11.662;2023-09-12T01:36:24;95271.56;;;22.48
34310;BMP280;61664;48.112;11.662;2023-09-12T01:38:51;95257.25;;;22.40
34310;BMP280;61664;48.112;11.662;2023-09-12T01:41:19;95259.59;;;22.44
34310;BMP280;61664;48.112;11.662;2023-09-12T01:43:49;95261.78;;;22.45
34310;BMP280;61664;48.112;11.662;2023-09-12T01:46:18;95267.97;;;22.46
34310;BMP280;61664;48.112;11.662;2023-09-12T01:48:49;95267.97;;;22.46
34310;BMP280;61664;48.112;11.662;2023-09-12T01:51:18;95258.88;;;22.43
34310;BMP280;61664;48.112;11.662;2023-09-12T01:53:48;95258.88;;;22.43
34310;BMP280;61664;48.112;11.662;2023-09-12T01:56:18;95270.84;;;22.48
34310;BMP280;61664;48.112;11.662;2023-09-12T01:58:46;95268.31;;;22.42
34310;BMP280;61664;48.112;11.662;2023-09-12T02:01:14;95252.34;;;22.31
34310;BMP280;61664;48.112;11.662;2023-09-12T02:03:41;95263.41;;;22.41
34310;BMP280;61664;48.112;11.662;2023-09-12T02:06:08;95276.66;;;22.44
34310;BMP280;61664;48.112;11.662;2023-09-12T02:08:35;95277.38;;;22.45
34310;BMP280;61664;48.112;11.662;2023-09-12T02:11:02;95282.84;;;22.45
34310;BMP280;61664;48.112;11.662;2023-09-12T02:13:29;95269.94;;;22.38
34310;BMP280;61664;48.112;11.662;2023-09-12T02:16:00;95282.66;;;22.43
34310;BMP280;61664;48.112;11.662;2023-09-12T02:18:27;95275.91;;;22.36
34310;BMP280;61664;48.112;11.662;2023-09-12T02:20:54;95281.34;;;22.36
34310;BMP280;61664;48.112;11.662;2023-09-12T02:23:21;95285.94;;;22.41
34310;BMP280;61664;48.112;11.662;2023-09-12T02:25:49;95267.59;;;22.34
34310;BMP280;61664;48.112;11.662;2023-09-12T02:28:16;95278.66;;;22.44
34310;BMP280;61664;48.112;11.662;2023-09-12T02:30:43;95277.75;;;22.41
34310;BMP280;61664;48.112;11.662;2023-09-12T02:33:09;95277.22;;;22.43
34310;BMP280;61664;48.112;11.662;2023-09-12T02:35:36;95276.84;;;22.46
34310;BMP280;61664;48.112;11.662;2023-09-12T02:38:03;95283.56;;;22.45
34310;BMP280;61664;48.112;11.662;2023-09-12T02:40:30;95288.09;;;22.43
34310;BMP280;61664;48.112;11.662;2023-09-12T02:42:57;95286.81;;;22.36
34310;BMP280;61664;48.112;11.662;2023-09-12T02:45:24;95286.06;;;22.36
34310;BMP280;61664;48.112;11.662;2023-09-12T02:47:51;95291.88;;;22.32
34310;BMP280;61664;48.112;11.662;2023-09-12T02:50:18;95280.25;;;22.24
34310;BMP280;61664;48.112;11.662;2023-09-12T02:52:45;95285.53;;;22.22
34310;BMP280;61664;48.112;11.662;2023-09-12T02:55:12;95289.88;;;22.25
34310;BMP280;61664;48.112;11.662;2023-09-12T02:57:39;95276.09;;;22.15
34310;BMP280;61664;48.112;11.662;2023-09-12T03:00:07;95282.44;;;22.18
34310;BMP280;61664;48.112;11.662;2023-09-12T03:02:35;95294.41;;;22.22
34310;BMP280;61664;48.112;11.662;2023-09-12T03:05:03;95276.81;;;22.16
34310;BMP280;61664;48.112;11.662;2023-09-12T03:07:30;95289.34;;;22.19
34310;BMP280;61664;48.112;11.662;2023-09-12T03:09:57;95287.50;;;22.14
34310;BMP280;61664;48.112;11.662;2023-09-12T03:12:24;95289.13;;;22.17
34310;BMP280;61664;48.112;11.662;2023-09-12T03:14:51;95290.22;;;22.14
34310;BMP280;61664;48.112;11.662;2023-09-12T03:17:18;95273.34;;;22.08
34310;BMP280;61664;48.112;11.662;2023-09-12T03:19:45;95285.88;;;22.11
34310;BMP280;61664;48.112;11.662;2023-09-12T03:22:12;95282.03;;;22.06
34310;BMP280;61664;48.112;11.662;2023-09-12T03:24:39;95288.41;;;22.09
34310;BMP280;61664;48.112;11.662;2023-09-12T03:27:07;95282.56;;;22.05
34310;BMP280;61664;48.112;11.662;2023-09-12T03:29:34;95286.75;;;22.06
34310;BMP280;61664;48.112;11.662;2023-09-12T03:32:01;95279.09;;;21.97
34310;BMP280;61664;48.112;11.662;2023-09-12T03:34:29;95278.78;;;22.00
34310;BMP280;61664;48.112;11.662;2023-09-12T03:36:56;95273.66;;;21.89
34310;BMP280;61664;48.112;11.662;2023-09-12T03:39:23;95272.19;;;21.88
34310;BMP280;61664;48.112;11.662;2023-09-12T03:41:49;95283.78;;;21.89
34310;BMP280;61664;48.112;11.662;2023-09-12T03:44:16;95280.53;;;21.82
34310;BMP280;61664;48.112;11.662;2023-09-12T03:46:43;95274.31;;;21.74
34310;BMP280;61664;48.112;11.662;2023-09-12T03:49:10;95273.75;;;21.68
34310;BMP280;61664;48.112;11.662;2023-09-12T03:51:37;95276.47;;;21.68
34310;BMP280;61664;48.112;11.662;2023-09-12T03:54:05;95280.81;;;21.64
34310;BMP280;61664;48.112;11.662;2023-09-12T03:56:32;95262.66;;;21.51
34310;BMP280;61664;48.112;11.662;2023-09-12T03:58:59;95281.84;;;21.53
34310;BMP280;61664;48.112;11.662;2023-09-12T04:01:27;95278.22;;;21.51
34310;BMP280;61664;48.112;11.662;2023-09-12T04:03:54;95278.75;;;21.49
34310;BMP280;61664;48.112;11.662;2023-09-12T04:06:22;95286.22;;;21.56
34310;BMP280;61664;48.112;11.662;2023-09-12T04:08:49;95280.22;;;21.50
34310;BMP280;61664;48.112;11.662;2023-09-12T04:11:16;95285.50;;;21.56
34310;BMP280;61664;48.112;11.662;2023-09-12T04:13:48;95278.03;;;21.49
34310;BMP280;61664;48.112;11.662;2023-09-12T04:16:15;95281.28;;;21.47
34310;BMP280;61664;48.112;11.662;2023-09-12T04:18:44;95285.44;;;21.48
34310;BMP280;61664;48.112;11.662;2023-09-12T04:21:11;95294.72;;;21.53
34310;BMP280;61664;48.112;11.662;2023-09-12T04:23:38;95293.81;;;21.50
34310;BMP280;61664;48.112;11.662;2023-09-12T04:26:05;95283.63;;;21.43
34310;BMP280;61664;48.112;11.662;2023-09-12T04:28:32;95286.88;;;21.41
34310;BMP280;61664;48.112;11.662;2023-09-12T04:31:03;95272.34;;;21.31
34310;BMP280;61664;48.112;11.662;2023-09-12T04:33:30;95285.94;;;21.31
34310;BMP280;61664;48.112;11.662;2023-09-12T04:36:00;95285.53;;;21.27
34310;BMP280;61664;48.112;11.662;2023-09-12T04:38:27;95286.44;;;21.30
34310;BMP280;61664;48.112;11.662;2023-09-12T04:41:00;95285.16;;;21.23
34310;BMP280;61664;48.112;11.662;2023-09-12T04:43:32;95289.50;;;21.26
34310;BMP280;61664;48.112;11.662;2023-09-12T04:45:59;95284.22;;;21.21
34310;BMP280;61664;48.112;11.662;2023-09-12T04:48:27;95289.84;;;21.23
34310;BMP280;61664;48.112;11.662;2023-09-12T04:50:55;95296.00;;;21.23
34310;BMP280;61664;48.112;11.662;2023-09-12T04:53:23;95288.59;;;21.24
34310;BMP280;61664;48.112;11.662;2023-09-12T04:55:52;95266.97;;;21.11
34310;BMP280;61664;48.112;11.662;2023-09-12T04:58:20;95289.50;;;21.26
34310;BMP280;61664;48.112;11.662;2023-09-12T05:00:47;95284.41;;;21.23
34310;BMP280;61664;48.112;11.662;2023-09-12T05:03:14;95294.41;;;21.28
34310;BMP280;61664;48.112;11.662;2023-09-12T05:05:41;95292.75;;;21.25
34310;BMP280;61664;48.112;11.662;2023-09-12T05:08:08;95287.66;;;21.21
34310;BMP280;61664;48.112;11.662;2023-09-12T05:10:35;95307.59;;;21.24
34310;BMP280;61664;48.112;11.662;2023-09-12T05:13:03;95306.16;;;21.23
34310;BMP280;61664;48.112;11.662;2023-09-12T05:15:30;95298.13;;;21.17
34310;BMP280;61664;48.112;11.662;2023-09-12T05:17:57;95297.09;;;21.20
34310;BMP280;61664;48.112;11.662;2023-09-12T05:20:24;95301.06;;;21.19
34310;BMP280;61664;48.112;11.662;2023-09-12T05:22:51;95303.22;;;21.21
34310;BMP280;61664;48.112;11.662;2023-09-12T05:25:17;95300.19;;;21.24
34310;BMP280;61664;48.112;11.662;2023-09-12T05:27:44;95305.94;;;21.21
34310;BMP280;61664;48.112;11.662;2023-09-12T05:30:12;95310.84;;;21.22
34310;BMP280;61664;48.112;11.662;2023-09-12T05:32:40;95316.50;;;21.24
34310;BMP280;61664;48.112;11.662;2023-09-12T05:35:07;95302.31;;;21.18
34310;BMP280;61664;48.112;11.662;2023-09-12T05:37:47;95311.38;;;21.21
34310;BMP280;61664;48.112;11.662;2023-09-12T05:40:14;95319.53;;;21.21
34310;BMP280;61664;48.112;11.662;2023-09-12T05:42:41;95314.09;;;21.21
34310;BMP280;61664;48.112;11.662;2023-09-12T05:45:08;95307.72;;;21.18
34310;BMP280;61664;48.112;11.662;2023-09-12T05:47:35;95304.28;;;21.18
34310;BMP280;61664;48.112;11.662;2023-09-12T05:50:03;95311.59;;;21.23
34310;BMP280;61664;48.112;11.662;2023-09-12T05:52:33;95298.13;;;21.17
34310;BMP280;61664;48.112;11.662;2023-09-12T05:55:00;95312.50;;;21.25
34310;BMP280;61664;48.112;11.662;2023-09-12T05:57:27;95313.41;;;21.28
34310;BMP280;61664;48.112;11.662;2023-09-12T05:59:54;95301.63;;;21.25
34310;BMP280;61664;48.112;11.662;2023-09-12T06:02:21;95314.34;;;21.30
34310;BMP280;61664;48.112;11.662;2023-09-12T06:04:48;95309.81;;;21.33
34310;BMP280;61664;48.112;11.662;2023-09-12T06:07:15;95325.66;;;21.42
34310;BMP280;61664;48.112;11.662;2023-09-12T06:09:42;95314.41;;;21.45
34310;BMP280;61664;48.112;11.662;2023-09-12T06:12:09;95314.84;;;21.57
34310;BMP280;61664;48.112;11.662;2023-09-12T06:14:36;95313.09;;;21.67
34310;BMP280;61664;48.112;11.662;2023-09-12T06:17:03;95320.91;;;21.78
34310;BMP280;61664;48.112;11.662;2023-09-12T06:19:30;95327.13;;;21.87
34310;BMP280;61664;48.112;11.662;2023-09-12T06:21:57;95322.25;;;21.93
34310;BMP280;61664;48.112;11.662;2023-09-12T06:24:26;95331.00;;;22.06
34310;BMP280;61664;48.112;11.662;2023-09-12T06:26:53;95322.88;;;22.14
34310;BMP280;61664;48.112;11.662;2023-09-12T06:29:20;95319.44;;;22.21
34310;BMP280;61664;48.112;11.662;2023-09-12T06:31:47;95323.28;;;22.33
34310;BMP280;61664;48.112;11.662;2023-09-12T06:34:14;95334.00;;;22.46
34310;BMP280;61664;48.112;11.662;2023-09-12T06:36:41;95332.19;;;22.56
34310;BMP280;61664;48.112;11.662;2023-09-12T06:39:11;95320.78;;;22.65
34310;BMP280;61664;48.112;11.662;2023-09-12T06:41:38;95324.97;;;22.82
34310;BMP280;61664;48.112;11.662;2023-09-12T06:44:05;95324.22;;;22.96
34310;BMP280;61664;48.112;11.662;2023-09-12T06:46:33;95327.50;;;23.10
34310;BMP280;61664;48.112;11.662;2023-09-12T06:49:03;95333.47;;;23.24
34310;BMP280;61664;48.112;11.662;2023-09-12T06:51:30;95332.34;;;23.34
34310;BMP280;61664;48.112;11.662;2023-09-12T06:54:03;95322.31;;;23.44
34310;BMP280;61664;48.112;11.662;2023-09-12T06:56:29;95325.75;;;23.53
34310;BMP280;61664;48.112;11.662;2023-09-12T06:58:56;95334.25;;;23.72
34310;BMP280;61664;48.112;11.662;2023-09-12T07:01:24;95339.28;;;23.83
34310;BMP280;61664;48.112;11.662;2023-09-12T07:03:51;95333.09;;;23.90
34310;BMP280;61664;48.112;11.662;2023-09-12T07:06:21;95336.66;;;24.00
34310;BMP280;61664;48.112;11.662;2023-09-12T07:08:48;95333.66;;;24.13
34310;BMP280;61664;48.112;11.662;2023-09-12T07:11:15;95332.94;;;24.20
34310;BMP280;61664;48.112;11.662;2023-09-12T07:13:42;95335.72;;;24.38
34310;BMP280;61664;48.112;11.662;2023-09-12T07:16:10;95337.69;;;24.45
34310;BMP280;61664;48.112;11.662;2023-09-12T07:18:37;95343.94;;;24.62
34310;BMP280;61664;48.112;11.662;2023-09-12T07:21:05;95348.16;;;24.81
34310;BMP280;61664;48.112;11.662;2023-09-12T07:23:33;95345.81;;;24.94
34310;BMP280;61664;48.112;11.662;2023-09-12T07:26:00;95346.81;;;25.06
34310;BMP280;61664;48.112;11.662;2023-09-12T07:28:27;95337.97;;;25.15
34310;BMP280;61664;48.112;11.662;2023-09-12T07:30:55;95345.88;;;25.29
34310;BMP280;61664;48.112;11.662;2023-09-12T07:33:22;95350.31;;;25.41
34310;BMP280;61664;48.112;11.662;2023-09-12T07:35:52;95343.06;;;25.53
34310;BMP280;61664;48.112;11.662;2023-09-12T07:38:21;95352.72;;;25.72
34310;BMP280;61664;48.112;11.662;2023-09-12T07:40:48;95350.66;;;25.89
34310;BMP280;61664;48.112;11.662;2023-09-12T07:43:15;95350.94;;;26.11
34310;BMP280;61664;48.112;11.662;2023-09-12T07:45:42;95349.31;;;26.34
34310;BMP280;61664;48.112;11.662;2023-09-12T07:48:10;95349.25;;;26.61
34310;BMP280;61664;48.112;11.662;2023-09-12T07:50:38;95352.69;;;27.56
34310;BMP280;61664;48.112;11.662;2023-09-12T07:53:06;95353.63;;;29.45
34310;BMP280;61664;48.112;11.662;2023-09-12T07:55:39;95348.41;;;31.26
34310;BMP280;61664;48.112;11.662;2023-09-12T07:58:15;95350.59;;;32.89
34310;BMP280;61664;48.112;11.662;2023-09-12T08:00:42;95350.97;;;33.87
34310;BMP280;61664;48.112;11.662;2023-09-12T08:03:09;95352.38;;;34.19
34310;BMP280;61664;48.112;11.662;2023-09-12T08:05:36;95361.75;;;34.12
34310;BMP280;61664;48.112;11.662;2023-09-12T08:08:03;95355.25;;;34.21
34310;BMP280;61664;48.112;11.662;2023-09-12T08:10:30;95360.28;;;34.76
34310;BMP280;61664;48.112;11.662;2023-09-12T08:12:57;95365.13;;;35.66
34310;BMP280;61664;48.112;11.662;2023-09-12T08:15:24;95358.53;;;36.55
34310;BMP280;61664;48.112;11.662;2023-09-12T08:17:53;95364.03;;;37.20
34310;BMP280;61664;48.112;11.662;2023-09-12T08:20:21;95363.44;;;37.71
34310;BMP280;61664;48.112;11.662;2023-09-12T08:22:48;95365.63;;;37.75
34310;BMP280;61664;48.112;11.662;2023-09-12T08:25:16;95359.56;;;37.33
34310;BMP280;61664;48.112;11.662;2023-09-12T08:27:42;95355.88;;;37.03
34310;BMP280;61664;48.112;11.662;2023-09-12T08:30:12;95344.84;;;37.07
34310;BMP280;61664;48.112;11.662;2023-09-12T08:32:41;95368.59;;;37.57
34310;BMP280;61664;48.112;11.662;2023-09-12T08:35:12;95356.06;;;38.08
34310;BMP280;61664;48.112;11.662;2023-09-12T08:37:41;95355.56;;;38.43
34310;BMP280;61664;48.112;11.662;2023-09-12T08:40:10;95359.94;;;37.97
34310;BMP280;61664;48.112;11.662;2023-09-12T08:42:43;95361.03;;;37.12
34310;BMP280;61664;48.112;11.662;2023-09-12T08:45:17;95361.34;;;36.36
34310;BMP280;61664;48.112;11.662;2023-09-12T08:47:49;95351.75;;;35.80
34310;BMP280;61664;48.112;11.662;2023-09-12T08:50:17;95350.16;;;35.55
34310;BMP280;61664;48.112;11.662;2023-09-12T08:52:46;95356.16;;;35.67
34310;BMP280;61664;48.112;11.662;2023-09-12T08:55:31;95346.81;;;36.17
34310;BMP280;61664;48.112;11.662;2023-09-12T08:58:03;95363.81;;;36.91
34310;BMP280;61664;48.112;11.662;2023-09-12T09:00:30;95356.03;;;37.56
34310;BMP280;61664;48.112;11.662;2023-09-12T09:02:58;95358.03;;;38.31
34310;BMP280;61664;48.112;11.662;2023-09-12T09:05:27;95354.16;;;39.02
34310;BMP280;61664;48.112;11.662;2023-09-12T09:07:56;95342.16;;;39.63
34310;BMP280;61664;48.112;11.662;2023-09-12T09:10:24;95355.50;;;40.46
34310;BMP280;61664;48.112;11.662;2023-09-12T09:13:12;95349.84;;;41.44
34310;BMP280;61664;48.112;11.662;2023-09-12T09:15:39;95344.84;;;42.06
34310;BMP280;61664;48.112;11.662;2023-09-12T09:18:09;95340.16;;;42.35
34310;BMP280;61664;48.112;11.662;2023-09-12T09:20:39;95342.38;;;42.44
34310;BMP280;61664;48.112;11.662;2023-09-12T09:23:10;95342.50;;;42.60
34310;BMP280;61664;48.112;11.662;2023-09-12T09:25:43;95336.34;;;42.96
34310;BMP280;61664;48.112;11.662;2023-09-12T09:28:20;95339.88;;;43.01
34310;BMP280;61664;48.112;11.662;2023-09-12T09:30:50;95344.13;;;43.02
34310;BMP280;61664;48.112;11.662;2023-09-12T09:33:22;95339.88;;;42.99
34310;BMP280;61664;48.112;11.662;2023-09-12T09:35:50;95337.06;;;43.05
34310;BMP280;61664;48.112;11.662;2023-09-12T09:38:22;95341.38;;;43.20
34310;BMP280;61664;48.112;11.662;2023-09-12T09:40:49;95338.69;;;43.70
34310;BMP280;61664;48.112;11.662;2023-09-12T09:43:21;95330.97;;;44.33
34310;BMP280;61664;48.112;11.662;2023-09-12T09:45:49;95331.63;;;44.54
34310;BMP280;61664;48.112;11.662;2023-09-12T09:48:21;95329.53;;;44.36
34310;BMP280;61664;48.112;11.662;2023-09-12T09:50:49;95327.47;;;44.03
34310;BMP280;61664;48.112;11.662;2023-09-12T09:53:16;95332.38;;;43.78
34310;BMP280;61664;48.112;11.662;2023-09-12T09:55:43;95325.34;;;43.81
34310;BMP280;61664;48.112;11.662;2023-09-12T09:58:15;95330.28;;;43.88
34310;BMP280;61664;48.112;11.662;2023-09-12T10:00:46;95330.25;;;43.60
34310;BMP280;61664;48.112;11.662;2023-09-12T10:03:18;95324.59;;;43.42
34310;BMP280;61664;48.112;11.662;2023-09-12T10:05:50;95309.06;;;43.25
34310;BMP280;61664;48.112;11.662;2023-09-12T10:08:18;95314.63;;;43.11
34310;BMP280;61664;48.112;11.662;2023-09-12T10:10:47;95318.63;;;42.65
34310;BMP280;61664;48.112;11.662;2023-09-12T10:13:16;95312.63;;;42.11
34310;BMP280;61664;48.112;11.662;2023-09-12T10:15:47;95313.50;;;41.56
34310;BMP280;61664;48.112;11.662;2023-09-12T10:18:19;95326.78;;;40.93
34310;BMP280;61664;48.112;11.662;2023-09-12T10:20:55;95310.28;;;40.20
34310;BMP280;61664;48.112;11.662;2023-09-12T10:23:42;95321.75;;;39.56
34310;BMP280;61664;48.112;11.662;2023-09-12T10:26:14;95319.72;;;39.25
34310;BMP280;61664;48.112;11.662;2023-09-12T10:28:42;95313.81;;;39.11
34310;BMP280;61664;48.112;11.662;2023-09-12T10:31:12;95314.19;;;38.95
34310;BMP280;61664;48.112;11.662;2023-09-12T10:33:40;95307.41;;;38.72
34310;BMP280;61664;48.112;11.662;2023-09-12T10:36:09;95302.16;;;38.57
34310;BMP280;61664;48.112;11.662;2023-09-12T10:38:42;95310.22;;;38.15
34310;BMP280;61664;48.112;11.662;2023-09-12T10:41:15;95309.91;;;37.77
34310;BMP280;61664;48.112;11.662;2023-09-12T10:43:44;95308.19;;;37.40
34310;BMP280;61664;48.112;11.662;2023-09-12T10:46:16;95299.16;;;36.92
34310;BMP280;61664;48.112;11.662;2023-09-12T10:48:44;95308.53;;;36.59
34310;BMP280;61664;48.112;11.662;2023-09-12T10:53:51;95303.41;;;36.08
34310;BMP280;61664;48.112;11.662;2023-09-12T10:56:21;95303.72;;;35.97
34310;BMP280;61664;48.112;11.662;2023-09-12T11:01:33;95293.72;;;35.50
34310;BMP280;61664;48.112;11.662;2023-09-12T11:06:47;95298.00;;;35.16
34310;BMP280;61664;48.112;11.662;2023-09-12T11:11:47;95297.72;;;34.73
34310;BMP280;61664;48.112;11.662;2023-09-12T11:14:16;95298.97;;;34.70
34310;BMP280;61664;48.112;11.662;2023-09-12T11:17:21;95294.38;;;34.59
34310;BMP280;61664;48.112;11.662;2023-09-12T11:19:52;95288.84;;;34.59
34310;BMP280;61664;48.112;11.662;2023-09-12T11:22:29;95298.22;;;34.51
34310;BMP280;61664;48.112;11.662;2023-09-12T11:25:02;95295.06;;;34.41
34310;BMP280;61664;48.112;11.662;2023-09-12T11:30:27;95283.56;;;34.31
34310;BMP280;61664;48.112;11.662;2023-09-12T11:32:58;95291.63;;;34.25
34310;BMP280;61664;48.112;11.662;2023-09-12T11:35:29;95286.38;;;34.16
34310;BMP280;61664;48.112;11.662;2023-09-12T11:37:59;95290.06;;;34.04
34310;BMP280;61664;48.112;11.662;2023-09-12T11:40:47;95289.19;;;34.00
34310;BMP280;61664;48.112;11.662;2023-09-12T11:43:25;95277.66;;;33.90
34310;BMP280;61664;48.112;11.662;2023-09-12T11:45:54;95283.63;;;34.00
34310;BMP280;61664;48.112;11.662;2023-09-12T11:48:21;95293.47;;;34.03
34310;BMP280;61664;48.112;11.662;2023-09-12T11:50:56;95278.38;;;34.06
34310;BMP280;61664;48.112;11.662;2023-09-12T11:53:26;95281.56;;;34.16
34310;BMP280;61664;48.112;11.662;2023-09-12T11:55:56;95276.41;;;34.09
34310;BMP280;61664;48.112;11.662;2023-09-12T11:58:25;95286.53;;;34.20
34310;BMP280;61664;48.112;11.662;2023-09-12T12:00:56;95278.06;;;34.16
34310;BMP280;61664;48.112;11.662;2023-09-12T12:03:25;95281.38;;;34.12
34310;BMP280;61664;48.112;11.662;2023-09-12T12:05:55;95271.28;;;34.03
34310;BMP280;61664;48.112;11.662;2023-09-12T12:08:24;95275.03;;;34.10
34310;BMP280;61664;48.112;11.662;2023-09-12T12:10:58;95274.59;;;34.15
34310;BMP280;61664;48.112;11.662;2023-09-12T12:13:26;95276.81;;;34.19
34310;BMP280;61664;48.112;11.662;2023-09-12T12:15:55;95274.41;;;34.11
34310;BMP280;61664;48.112;11.662;2023-09-12T12:18:24;95273.75;;;33.95
34310;BMP280;61664;48.112;11.662;2023-09-12T12:20:51;95273.03;;;33.79
34310;BMP280;61664;48.112;11.662;2023-09-12T12:23:18;95262.88;;;33.68
34310;BMP280;61664;48.112;11.662;2023-09-12T12:25:45;95265.19;;;33.58
34310;BMP280;61664;48.112;11.662;2023-09-12T12:28:12;95266.34;;;33.52
34310;BMP280;61664;48.112;11.662;2023-09-12T12:30:39;95261.88;;;33.45
34310;BMP280;61664;48.112;11.662;2023-09-12T12:33:09;95261.53;;;33.37
34310;BMP280;61664;48.112;11.662;2023-09-12T12:36:05;95254.97;;;33.31
34310;BMP280;61664;48.112;11.662;2023-09-12T12:38:37;95260.97;;;33.25
34310;BMP280;61664;48.112;11.662;2023-09-12T12:41:27;95256.50;;;33.18
34310;BMP280;61664;48.112;11.662;2023-09-12T12:44:05;95259.09;;;33.14
34310;BMP280;61664;48.112;11.662;2023-09-12T12:46:33;95241.41;;;33.06
34310;BMP280;61664;48.112;11.662;2023-09-12T12:49:00;95243.00;;;32.95
34310;BMP280;61664;48.112;11.662;2023-09-12T12:51:27;95250.28;;;32.88
34310;BMP280;61664;48.112;11.662;2023-09-12T12:54:04;95248.78;;;32.85
34310;BMP280;61664;48.112;11.662;2023-09-12T12:56:33;95248.63;;;32.83
34310;BMP280;61664;48.112;11.662;2023-09-12T12:59:02;95228.69;;;32.85
34310;BMP280;61664;48.112;11.662;2023-09-12T13:01:30;95230.38;;;32.92
34310;BMP280;61664;48.112;11.662;2023-09-12T13:03:58;95235.81;;;32.90
34310;BMP280;61664;48.112;11.662;2023-09-12T13:06:25;95229.19;;;32.81
34310;BMP280;61664;48.112;11.662;2023-09-12T13:08:54;95229.53;;;32.74
34310;BMP280;61664;48.112;11.662;2023-09-12T13:11:23;95233.44;;;32.69
34310;BMP280;61664;48.112;11.662;2023-09-12T13:13:50;95215.94;;;32.64
34310;BMP280;61664;48.112;11.662;2023-09-12T13:16:18;95209.34;;;32.56
34310;BMP280;61664;48.112;11.662;2023-09-12T13:18:45;95216.47;;;32.61
34310;BMP280;61664;48.112;11.662;2023-09-12T13:21:13;95216.69;;;32.65
34310;BMP280;61664;48.112;11.662;2023-09-12T13:23:40;95215.94;;;32.64
34310;BMP280;61664;48.112;11.662;2023-09-12T13:26:09;95206.94;;;32.64
34310;BMP280;61664;48.112;11.662;2023-09-12T13:28:37;95204.28;;;32.66
34310;BMP280;61664;48.112;11.662;2023-09-12T13:31:04;95204.28;;;32.66
34310;BMP280;61664;48.112;11.662;2023-09-12T13:33:31;95205.97;;;32.73
34310;BMP280;61664;48.112;11.662;2023-09-12T13:35:58;95195.91;;;32.79
34310;BMP280;61664;48.112;11.662;2023-09-12T13:38:25;95198.00;;;32.94
34310;BMP280;61664;48.112;11.662;2023-09-12T13:40:52;95203.19;;;33.18
34310;BMP280;61664;48.112;11.662;2023-09-12T13:43:19;95205.06;;;33.44
34310;BMP280;61664;48.112;11.662;2023-09-12T13:45:46;95197.47;;;33.61
34310;BMP280;61664;48.112;11.662;2023-09-12T13:48:14;95198.69;;;33.73
34310;BMP280;61664;48.112;11.662;2023-09-12T13:50:41;95189.06;;;33.92
34310;BMP280;61664;48.112;11.662;2023-09-12T13:53:10;95187.31;;;34.16
34310;BMP280;61664;48.112;11.662;2023-09-12T13:55:37;95189.19;;;34.29
34310;BMP280;61664;48.112;11.662;2023-09-12T13:58:24;95190.56;;;34.46
34310;BMP280;61664;48.112;11.662;2023-09-12T14:01:01;95194.13;;;34.66
34310;BMP280;61664;48.112;11.662;2023-09-12T14:03:30;95189.41;;;34.88
34310;BMP280;61664;48.112;11.662;2023-09-12T14:06:06;95182.88;;;35.19
34310;BMP280;61664;48.112;11.662;2023-09-12T14:08:33;95186.09;;;35.51
34310;BMP280;61664;48.112;11.662;2023-09-12T14:11:00;95183.50;;;35.98
34310;BMP280;61664;48.112;11.662;2023-09-12T14:13:28;95182.09;;;36.64
34310;BMP280;61664;48.112;11.662;2023-09-12T14:15:55;95192.31;;;37.31
34310;BMP280;61664;48.112;11.662;2023-09-12T14:18:24;95182.81;;;37.68
34310;BMP280;61664;48.112;11.662;2023-09-12T14:20:52;95191.41;;;38.04
34310;BMP280;61664;48.112;11.662;2023-09-12T14:23:19;95186.69;;;38.42
34310;BMP280;61664;48.112;11.662;2023-09-12T14:25:48;95190.22;;;38.76
34310;BMP280;61664;48.112;11.662;2023-09-12T14:28:16;95190.63;;;38.96